AVA9445 SKSP-SKBO
Flight info
| Callsign | AVA9445 |
|---|---|
| Flight time | N/A |
| Altitude | 37000 |
| Route | BODED2B BODED DCT VUNIB UP530 RNG UQ121 ISVAT ISVAT5E |
| Aircraft | A320/M-SDE3FGHIRWY/LB1 |
Departure
| Time | 2026-04-27 11:29 |
|---|---|
| Airport | Gustavo Rojas Pinilla International Airport (SKSP) |
Arrival
| Time | N/A |
|---|---|
| Airport | El Dorado International Airport (SKBO) |
| Time | Latitude | Longitude | Altitude | Speed | Heading |
|---|---|---|---|---|---|
| 2026-04-27 10:48 | 12.58691 | -81.70230 | 11 ft | 0 kts | 147° |
| 2026-04-27 11:13 | 12.58709 | -81.70241 | 11 ft | 4 kts | 148° |
| 2026-04-27 11:13 | 12.58728 | -81.70253 | 12 ft | 4 kts | 151° |
| 2026-04-27 11:13 | 12.58751 | -81.70260 | 12 ft | 4 kts | 197° |
| 2026-04-27 11:14 | 12.58770 | -81.70247 | 13 ft | 2 kts | 240° |
| 2026-04-27 11:14 | 12.58771 | -81.70245 | 12 ft | 0 kts | 240° |
| 2026-04-27 11:16 | 12.58770 | -81.70246 | 13 ft | 1 kts | 240° |
| 2026-04-27 11:16 | 12.58760 | -81.70264 | 12 ft | 5 kts | 240° |
| 2026-04-27 11:17 | 12.58739 | -81.70301 | 14 ft | 7 kts | 240° |
| 2026-04-27 11:17 | 12.58720 | -81.70335 | 14 ft | 4 kts | 240° |
| 2026-04-27 11:17 | 12.58711 | -81.70358 | 14 ft | 4 kts | 259° |
| 2026-04-27 11:17 | 12.58724 | -81.70398 | 16 ft | 8 kts | 294° |
| 2026-04-27 11:18 | 12.58742 | -81.70446 | 15 ft | 6 kts | 279° |
| 2026-04-27 11:18 | 12.58722 | -81.70493 | 15 ft | 10 kts | 238° |
| 2026-04-27 11:18 | 12.58679 | -81.70565 | 16 ft | 13 kts | 240° |
| 2026-04-27 11:18 | 12.58639 | -81.70637 | 19 ft | 10 kts | 238° |
| 2026-04-27 11:19 | 12.58611 | -81.70684 | 21 ft | 6 kts | 239° |
| 2026-04-27 11:19 | 12.58596 | -81.70710 | 22 ft | 3 kts | 239° |
| 2026-04-27 11:19 | 12.58587 | -81.70727 | 21 ft | 5 kts | 239° |
| 2026-04-27 11:19 | 12.58554 | -81.70784 | 23 ft | 14 kts | 239° |
| 2026-04-27 11:20 | 12.58513 | -81.70856 | 24 ft | 20 kts | 239° |
| 2026-04-27 11:21 | 12.58457 | -81.70952 | 24 ft | 19 kts | 239° |
| 2026-04-27 11:21 | 12.58393 | -81.71060 | 28 ft | 17 kts | 239° |
| 2026-04-27 11:21 | 12.58332 | -81.71162 | 24 ft | 16 kts | 238° |
| 2026-04-27 11:21 | 12.58281 | -81.71258 | 26 ft | 14 kts | 242° |
| 2026-04-27 11:22 | 12.58237 | -81.71338 | 25 ft | 12 kts | 239° |
| 2026-04-27 11:22 | 12.58195 | -81.71409 | 24 ft | 11 kts | 239° |
| 2026-04-27 11:22 | 12.58155 | -81.71477 | 25 ft | 11 kts | 239° |
| 2026-04-27 11:22 | 12.58118 | -81.71542 | 23 ft | 11 kts | 240° |
| 2026-04-27 11:23 | 12.58073 | -81.71622 | 29 ft | 15 kts | 239° |
| 2026-04-27 11:23 | 12.58013 | -81.71725 | 26 ft | 19 kts | 239° |
| 2026-04-27 11:23 | 12.57941 | -81.71851 | 28 ft | 21 kts | 239° |
| 2026-04-27 11:23 | 12.57881 | -81.71955 | 31 ft | 13 kts | 239° |
| 2026-04-27 11:24 | 12.57844 | -81.72000 | 31 ft | 7 kts | 209° |
| 2026-04-27 11:24 | 12.57817 | -81.72036 | 31 ft | 6 kts | 273° |
| 2026-04-27 11:24 | 12.57837 | -81.72030 | 31 ft | 3 kts | 46° |
| 2026-04-27 11:24 | 12.57848 | -81.72013 | 31 ft | 0 kts | 59° |
| 2026-04-27 11:25 | 12.57850 | -81.72008 | 31 ft | 0 kts | 60° |
| 2026-04-27 11:27 | 12.57851 | -81.72008 | 31 ft | 1 kts | 60° |
| 2026-04-27 11:27 | 12.57854 | -81.72002 | 31 ft | 0 kts | 60° |
| 2026-04-27 11:28 | 12.57855 | -81.71999 | 31 ft | 4 kts | 60° |
| 2026-04-27 11:28 | 12.57987 | -81.71772 | 27 ft | 76 kts | 59° |
| 2026-04-27 11:28 | 12.58361 | -81.71119 | 26 ft | 134 kts | 59° |
| 2026-04-27 11:28 | 12.58874 | -81.70209 | 434 ft | 147 kts | 60° |
| 2026-04-27 11:29 | 12.59408 | -81.69341 | 1173 ft | 143 kts | 58° |
| 2026-04-27 11:29 | 12.59989 | -81.68433 | 1511 ft | 162 kts | 59° |
| 2026-04-27 11:29 | 12.60562 | -81.67345 | 1784 ft | 186 kts | 69° |
| 2026-04-27 11:29 | 12.60897 | -81.65999 | 2102 ft | 206 kts | 84° |
| 2026-04-27 11:30 | 12.60837 | -81.64451 | 2517 ft | 231 kts | 101° |
| 2026-04-27 11:30 | 12.60257 | -81.62837 | 3042 ft | 253 kts | 118° |
| 2026-04-27 11:30 | 12.59112 | -81.61435 | 3814 ft | 263 kts | 137° |
| 2026-04-27 11:30 | 12.57530 | -81.60434 | 4617 ft | 273 kts | 156° |
| 2026-04-27 11:31 | 12.55724 | -81.59778 | 5407 ft | 279 kts | 159° |
| 2026-04-27 11:31 | 12.53870 | -81.59124 | 6196 ft | 284 kts | 160° |
| 2026-04-27 11:31 | 12.52016 | -81.58475 | 6964 ft | 288 kts | 160° |
| 2026-04-27 11:31 | 12.50102 | -81.57807 | 7724 ft | 293 kts | 161° |
| 2026-04-27 11:32 | 12.48151 | -81.57129 | 8438 ft | 299 kts | 161° |
| 2026-04-27 11:32 | 12.46191 | -81.56383 | 9251 ft | 302 kts | 155° |
| 2026-04-27 11:32 | 12.44383 | -81.55246 | 9956 ft | 308 kts | 141° |
| 2026-04-27 11:32 | 12.42830 | -81.53702 | 10537 ft | 319 kts | 131° |
| 2026-04-27 11:33 | 12.41349 | -81.51914 | 10748 ft | 341 kts | 130° |
| 2026-04-27 11:33 | 12.39734 | -81.50077 | 11285 ft | 350 kts | 133° |
| 2026-04-27 11:33 | 12.38040 | -81.48269 | 11966 ft | 354 kts | 134° |
| 2026-04-27 11:33 | 12.36311 | -81.46459 | 12624 ft | 358 kts | 134° |
| 2026-04-27 11:34 | 12.34570 | -81.44631 | 13326 ft | 360 kts | 134° |
| 2026-04-27 11:34 | 12.32829 | -81.42780 | 13987 ft | 362 kts | 134° |
| 2026-04-27 11:34 | 12.31091 | -81.40911 | 14584 ft | 364 kts | 134° |
| 2026-04-27 11:34 | 12.29346 | -81.39016 | 15140 ft | 367 kts | 133° |
| 2026-04-27 11:35 | 12.27594 | -81.37102 | 15683 ft | 371 kts | 133° |
| 2026-04-27 11:35 | 12.25823 | -81.35163 | 16256 ft | 373 kts | 133° |
| 2026-04-27 11:35 | 12.24043 | -81.33219 | 16824 ft | 376 kts | 133° |
| 2026-04-27 11:35 | 12.22244 | -81.31258 | 17374 ft | 379 kts | 133° |
| 2026-04-27 11:36 | 12.20431 | -81.29281 | 17886 ft | 383 kts | 134° |
| 2026-04-27 11:36 | 12.18599 | -81.27283 | 18370 ft | 387 kts | 134° |
| 2026-04-27 11:36 | 12.16743 | -81.25262 | 18822 ft | 390 kts | 134° |
| 2026-04-27 11:36 | 12.14881 | -81.23234 | 19296 ft | 393 kts | 134° |
| 2026-04-27 11:37 | 12.13004 | -81.21193 | 19767 ft | 395 kts | 134° |
| 2026-04-27 11:37 | 12.11115 | -81.19141 | 20216 ft | 398 kts | 134° |
| 2026-04-27 11:37 | 12.09209 | -81.17073 | 20663 ft | 401 kts | 134° |
| 2026-04-27 11:37 | 12.07293 | -81.14994 | 21093 ft | 404 kts | 135° |
| 2026-04-27 11:38 | 12.05360 | -81.12895 | 21513 ft | 407 kts | 135° |
| 2026-04-27 11:38 | 12.03439 | -81.10807 | 21936 ft | 410 kts | 135° |
| 2026-04-27 11:38 | 12.01486 | -81.08682 | 22375 ft | 412 kts | 135° |
| 2026-04-27 11:38 | 11.99515 | -81.06539 | 22820 ft | 415 kts | 135° |
| 2026-04-27 11:39 | 11.97535 | -81.04388 | 23246 ft | 417 kts | 135° |
| 2026-04-27 11:39 | 11.95539 | -81.02225 | 23639 ft | 419 kts | 135° |
| 2026-04-27 11:39 | 11.93534 | -81.00051 | 23989 ft | 422 kts | 135° |
| 2026-04-27 11:39 | 11.91521 | -80.97864 | 24345 ft | 423 kts | 135° |
| 2026-04-27 11:40 | 11.89501 | -80.95670 | 24713 ft | 425 kts | 135° |
| 2026-04-27 11:40 | 11.87472 | -80.93470 | 25094 ft | 426 kts | 135° |
| 2026-04-27 11:40 | 11.85439 | -80.91271 | 25469 ft | 427 kts | 135° |
| 2026-04-27 11:40 | 11.83394 | -80.89060 | 25823 ft | 428 kts | 135° |
| 2026-04-27 11:41 | 11.81345 | -80.86844 | 26172 ft | 430 kts | 135° |
| 2026-04-27 11:41 | 11.79290 | -80.84617 | 26518 ft | 432 kts | 136° |
| 2026-04-27 11:41 | 11.77223 | -80.82379 | 26859 ft | 433 kts | 136° |
| 2026-04-27 11:41 | 11.75143 | -80.80141 | 27196 ft | 435 kts | 136° |
| 2026-04-27 11:42 | 11.73050 | -80.77900 | 27518 ft | 437 kts | 136° |
| 2026-04-27 11:42 | 11.71656 | -80.76411 | 27745 ft | 438 kts | 136° |
| 2026-04-27 11:42 | 11.69546 | -80.74161 | 28061 ft | 440 kts | 136° |
| 2026-04-27 11:42 | 11.66738 | -80.71165 | 28492 ft | 442 kts | 136° |
| 2026-04-27 11:43 | 11.64611 | -80.68892 | 28815 ft | 444 kts | 136° |
| 2026-04-27 11:43 | 11.62476 | -80.66605 | 29135 ft | 446 kts | 136° |
| 2026-04-27 11:43 | 11.61028 | -80.65054 | 29351 ft | 447 kts | 136° |
| 2026-04-27 11:43 | 11.58878 | -80.62753 | 29663 ft | 449 kts | 136° |
| 2026-04-27 11:44 | 11.56719 | -80.60447 | 29958 ft | 451 kts | 137° |
| 2026-04-27 11:44 | 11.54579 | -80.58160 | 30215 ft | 452 kts | 137° |
| 2026-04-27 11:44 | 11.52377 | -80.55806 | 30463 ft | 454 kts | 136° |
| 2026-04-27 11:44 | 11.50225 | -80.53506 | 30699 ft | 455 kts | 136° |
| 2026-04-27 11:45 | 11.48030 | -80.51167 | 30949 ft | 457 kts | 136° |
| 2026-04-27 11:45 | 11.45831 | -80.48826 | 31201 ft | 458 kts | 136° |
| 2026-04-27 11:45 | 11.43620 | -80.46475 | 31466 ft | 459 kts | 136° |
| 2026-04-27 11:45 | 11.41419 | -80.44129 | 31813 ft | 457 kts | 136° |
| 2026-04-27 11:46 | 11.39223 | -80.41786 | 32154 ft | 457 kts | 136° |
| 2026-04-27 11:46 | 11.37034 | -80.39446 | 32499 ft | 456 kts | 136° |
| 2026-04-27 11:46 | 11.34850 | -80.37109 | 32838 ft | 455 kts | 136° |
| 2026-04-27 11:46 | 11.32670 | -80.34779 | 33173 ft | 454 kts | 136° |
| 2026-04-27 11:47 | 11.30486 | -80.32455 | 33517 ft | 453 kts | 136° |
| 2026-04-27 11:47 | 11.28303 | -80.30134 | 33863 ft | 453 kts | 136° |
| 2026-04-27 11:47 | 11.26122 | -80.27821 | 34165 ft | 452 kts | 136° |
| 2026-04-27 11:47 | 11.23944 | -80.25515 | 34455 ft | 452 kts | 136° |
| 2026-04-27 11:48 | 11.21771 | -80.23206 | 34723 ft | 451 kts | 136° |
| 2026-04-27 11:48 | 11.19598 | -80.20892 | 34982 ft | 451 kts | 136° |
| 2026-04-27 11:48 | 11.17458 | -80.18615 | 35236 ft | 451 kts | 136° |
| 2026-04-27 11:48 | 11.15259 | -80.16274 | 35470 ft | 451 kts | 136° |
| 2026-04-27 11:49 | 11.13096 | -80.13975 | 35740 ft | 450 kts | 137° |
| 2026-04-27 11:49 | 11.10959 | -80.11702 | 35956 ft | 450 kts | 137° |
| 2026-04-27 11:49 | 11.08792 | -80.09399 | 36179 ft | 450 kts | 137° |
| 2026-04-27 11:49 | 11.06627 | -80.07100 | 36408 ft | 450 kts | 137° |
| 2026-04-27 11:50 | 11.04463 | -80.04798 | 36633 ft | 450 kts | 137° |
| 2026-04-27 11:50 | 11.02301 | -80.02500 | 36848 ft | 450 kts | 137° |
| 2026-04-27 11:50 | 10.97985 | -79.97912 | 36954 ft | 447 kts | 137° |
| 2026-04-27 11:51 | 10.93684 | -79.93353 | 36942 ft | 446 kts | 137° |
| 2026-04-27 11:52 | 10.87248 | -79.86531 | 36943 ft | 445 kts | 137° |
| 2026-04-27 11:52 | 10.82953 | -79.81978 | 36941 ft | 445 kts | 137° |
| 2026-04-27 11:53 | 10.78658 | -79.77429 | 36937 ft | 445 kts | 137° |
| 2026-04-27 11:53 | 10.74370 | -79.72889 | 36946 ft | 445 kts | 137° |
| 2026-04-27 11:54 | 10.70108 | -79.68373 | 36950 ft | 445 kts | 137° |
| 2026-04-27 11:54 | 10.65822 | -79.63833 | 36957 ft | 445 kts | 137° |
| 2026-04-27 11:55 | 10.61527 | -79.59302 | 36947 ft | 445 kts | 137° |
| 2026-04-27 11:55 | 10.57236 | -79.54773 | 36951 ft | 445 kts | 137° |
| 2026-04-27 11:56 | 10.52936 | -79.50236 | 36954 ft | 445 kts | 137° |
| 2026-04-27 11:56 | 10.48627 | -79.45728 | 36950 ft | 444 kts | 137° |
| 2026-04-27 11:57 | 10.44326 | -79.41265 | 36955 ft | 444 kts | 138° |
| 2026-04-27 11:57 | 10.39967 | -79.36748 | 36949 ft | 445 kts | 138° |
| 2026-04-27 11:58 | 10.35672 | -79.32282 | 36948 ft | 445 kts | 137° |
| 2026-04-27 11:58 | 10.31347 | -79.27788 | 36945 ft | 445 kts | 138° |
| 2026-04-27 11:59 | 10.27019 | -79.23296 | 36947 ft | 445 kts | 138° |
| 2026-04-27 11:59 | 10.22688 | -79.18801 | 36948 ft | 445 kts | 138° |
| 2026-04-27 12:00 | 10.18358 | -79.14310 | 36947 ft | 445 kts | 138° |
| 2026-04-27 12:00 | 10.14030 | -79.09822 | 36948 ft | 445 kts | 138° |
| 2026-04-27 12:01 | 10.09701 | -79.05333 | 36949 ft | 445 kts | 138° |
| 2026-04-27 12:01 | 10.05370 | -79.00845 | 36951 ft | 445 kts | 137° |
| 2026-04-27 12:02 | 10.01044 | -78.96353 | 36951 ft | 445 kts | 137° |
| 2026-04-27 12:02 | 9.96716 | -78.91870 | 36960 ft | 444 kts | 137° |
| 2026-04-27 12:03 | 9.92388 | -78.87395 | 36952 ft | 444 kts | 137° |
| 2026-04-27 12:03 | 9.88064 | -78.82926 | 36952 ft | 444 kts | 137° |
| 2026-04-27 12:04 | 9.83734 | -78.78458 | 36958 ft | 443 kts | 137° |
| 2026-04-27 12:04 | 9.79444 | -78.74018 | 36955 ft | 443 kts | 137° |
| 2026-04-27 12:05 | 9.75124 | -78.69552 | 36948 ft | 443 kts | 137° |
| 2026-04-27 12:05 | 9.70798 | -78.65087 | 36943 ft | 443 kts | 137° |
| 2026-04-27 12:06 | 9.66467 | -78.60624 | 36943 ft | 443 kts | 137° |
| 2026-04-27 12:06 | 9.62148 | -78.56158 | 36944 ft | 444 kts | 137° |
| 2026-04-27 12:07 | 9.57826 | -78.51700 | 36948 ft | 444 kts | 137° |
| 2026-04-27 12:07 | 9.53493 | -78.47236 | 36948 ft | 444 kts | 137° |
| 2026-04-27 12:08 | 9.49200 | -78.42803 | 36950 ft | 444 kts | 137° |
| 2026-04-27 12:08 | 9.44874 | -78.38341 | 36955 ft | 444 kts | 137° |
| 2026-04-27 12:09 | 9.42709 | -78.36113 | 36958 ft | 444 kts | 137° |
| 2026-04-27 12:09 | 9.39111 | -78.32423 | 36959 ft | 444 kts | 137° |
| 2026-04-27 12:10 | 9.34785 | -78.27973 | 36960 ft | 444 kts | 137° |
| 2026-04-27 12:10 | 9.30452 | -78.23518 | 36965 ft | 444 kts | 137° |
| 2026-04-27 12:11 | 9.26125 | -78.19065 | 36961 ft | 444 kts | 136° |
| 2026-04-27 12:11 | 9.21887 | -78.14505 | 36957 ft | 445 kts | 135° |
| 2026-04-27 12:12 | 9.17708 | -78.09877 | 36960 ft | 445 kts | 135° |
| 2026-04-27 12:12 | 9.13801 | -78.05584 | 36961 ft | 445 kts | 135° |
| 2026-04-27 12:13 | 9.09579 | -78.01001 | 36959 ft | 445 kts | 136° |
| 2026-04-27 12:13 | 9.05376 | -77.96451 | 36959 ft | 445 kts | 135° |
| 2026-04-27 12:14 | 9.01149 | -77.91862 | 36957 ft | 446 kts | 135° |
| 2026-04-27 12:14 | 8.96920 | -77.87270 | 36960 ft | 446 kts | 135° |
| 2026-04-27 12:15 | 8.92687 | -77.82673 | 36958 ft | 446 kts | 135° |
| 2026-04-27 12:15 | 8.88451 | -77.78083 | 36958 ft | 446 kts | 136° |
| 2026-04-27 12:16 | 8.84209 | -77.73492 | 36960 ft | 447 kts | 136° |
| 2026-04-27 12:16 | 8.79971 | -77.68889 | 36958 ft | 447 kts | 135° |
| 2026-04-27 12:17 | 8.75732 | -77.64280 | 36959 ft | 447 kts | 136° |
| 2026-04-27 12:17 | 8.71494 | -77.59681 | 36966 ft | 447 kts | 136° |
| 2026-04-27 12:18 | 8.67249 | -77.55090 | 36970 ft | 447 kts | 136° |
| 2026-04-27 12:18 | 8.63008 | -77.50501 | 36969 ft | 447 kts | 136° |
| 2026-04-27 12:19 | 8.58791 | -77.45943 | 36965 ft | 447 kts | 136° |
| 2026-04-27 12:19 | 8.54545 | -77.41354 | 36971 ft | 447 kts | 136° |
| 2026-04-27 12:20 | 8.50127 | -77.36949 | 36966 ft | 445 kts | 139° |
| 2026-04-27 12:20 | 8.45572 | -77.32722 | 36968 ft | 445 kts | 140° |
| 2026-04-27 12:21 | 8.41016 | -77.28486 | 36979 ft | 445 kts | 140° |
| 2026-04-27 12:21 | 8.36501 | -77.24198 | 36979 ft | 445 kts | 139° |
| 2026-04-27 12:22 | 8.32008 | -77.19898 | 36975 ft | 445 kts | 139° |
| 2026-04-27 12:22 | 8.27511 | -77.15600 | 36982 ft | 445 kts | 139° |
| 2026-04-27 12:23 | 8.23004 | -77.11307 | 36984 ft | 445 kts | 139° |
| 2026-04-27 12:23 | 8.18526 | -77.07052 | 36977 ft | 445 kts | 139° |
| 2026-04-27 12:24 | 8.14009 | -77.02757 | 36980 ft | 445 kts | 139° |
| 2026-04-27 12:24 | 8.09503 | -76.98474 | 36979 ft | 445 kts | 139° |
| 2026-04-27 12:25 | 8.04992 | -76.94183 | 36979 ft | 445 kts | 139° |
| 2026-04-27 12:25 | 8.00478 | -76.89890 | 36974 ft | 445 kts | 139° |
| 2026-04-27 12:26 | 7.95968 | -76.85602 | 36967 ft | 445 kts | 139° |
| 2026-04-27 12:26 | 7.91468 | -76.81317 | 36965 ft | 445 kts | 139° |
| 2026-04-27 12:27 | 7.86996 | -76.77053 | 36960 ft | 444 kts | 139° |
| 2026-04-27 12:27 | 7.82488 | -76.72787 | 36960 ft | 443 kts | 141° |
| 2026-04-27 12:28 | 7.77539 | -76.69127 | 36954 ft | 441 kts | 147° |
| 2026-04-27 12:28 | 7.72515 | -76.65564 | 36972 ft | 441 kts | 147° |
| 2026-04-27 12:29 | 7.67496 | -76.61989 | 36992 ft | 442 kts | 147° |
| 2026-04-27 12:29 | 7.62477 | -76.58402 | 36996 ft | 442 kts | 147° |
| 2026-04-27 12:30 | 7.58310 | -76.55431 | 36996 ft | 442 kts | 147° |
| 2026-04-27 12:30 | 7.52468 | -76.51277 | 37000 ft | 442 kts | 147° |
| 2026-04-27 12:31 | 7.47452 | -76.47714 | 37018 ft | 441 kts | 147° |
| 2026-04-27 12:31 | 7.43251 | -76.44732 | 37021 ft | 440 kts | 147° |
| 2026-04-27 12:32 | 7.38282 | -76.41200 | 37024 ft | 440 kts | 147° |
| 2026-04-27 12:32 | 7.33249 | -76.37616 | 37026 ft | 439 kts | 147° |
| 2026-04-27 12:33 | 7.28284 | -76.34087 | 37045 ft | 439 kts | 147° |
| 2026-04-27 12:33 | 7.23286 | -76.30541 | 37044 ft | 439 kts | 147° |
| 2026-04-27 12:34 | 7.18293 | -76.26994 | 37042 ft | 439 kts | 146° |
| 2026-04-27 12:34 | 7.13308 | -76.23437 | 37039 ft | 439 kts | 146° |
| 2026-04-27 12:35 | 7.08319 | -76.19885 | 37074 ft | 439 kts | 147° |
| 2026-04-27 12:35 | 7.03331 | -76.16343 | 37075 ft | 439 kts | 147° |
| 2026-04-27 12:36 | 6.98333 | -76.12799 | 37071 ft | 439 kts | 147° |
| 2026-04-27 12:36 | 6.93369 | -76.09290 | 37079 ft | 439 kts | 147° |
| 2026-04-27 12:37 | 6.88370 | -76.05753 | 37101 ft | 439 kts | 147° |
| 2026-04-27 12:37 | 6.83387 | -76.02214 | 37100 ft | 438 kts | 146° |
| 2026-04-27 12:38 | 6.78395 | -75.98673 | 37099 ft | 438 kts | 147° |
| 2026-04-27 12:38 | 6.73415 | -75.95143 | 37098 ft | 438 kts | 146° |
| 2026-04-27 12:39 | 6.68435 | -75.91610 | 37101 ft | 438 kts | 147° |
| 2026-04-27 12:39 | 6.63482 | -75.88104 | 37107 ft | 439 kts | 147° |
| 2026-04-27 12:40 | 6.58486 | -75.84570 | 37104 ft | 439 kts | 147° |
| 2026-04-27 12:40 | 6.53485 | -75.81030 | 37105 ft | 440 kts | 147° |
| 2026-04-27 12:41 | 6.48484 | -75.77492 | 37109 ft | 440 kts | 147° |
| 2026-04-27 12:41 | 6.43478 | -75.73950 | 37114 ft | 440 kts | 147° |
| 2026-04-27 12:42 | 6.38475 | -75.70409 | 37115 ft | 440 kts | 147° |
| 2026-04-27 12:42 | 6.33474 | -75.66869 | 37118 ft | 440 kts | 147° |
| 2026-04-27 12:42 | 6.30968 | -75.65093 | 37256 ft | 440 kts | 147° |
| 2026-04-27 12:43 | 6.28464 | -75.63318 | 37269 ft | 440 kts | 147° |
| 2026-04-27 12:43 | 6.23461 | -75.59775 | 37253 ft | 440 kts | 146° |
| 2026-04-27 12:44 | 6.18482 | -75.56257 | 37258 ft | 440 kts | 146° |
| 2026-04-27 12:44 | 6.13462 | -75.52711 | 37128 ft | 445 kts | 146° |
| 2026-04-27 12:44 | 6.10929 | -75.50925 | 37005 ft | 445 kts | 146° |
| 2026-04-27 12:45 | 6.08398 | -75.49140 | 36759 ft | 443 kts | 146° |
| 2026-04-27 12:45 | 6.05876 | -75.47359 | 36502 ft | 441 kts | 146° |
| 2026-04-27 12:45 | 6.03373 | -75.45587 | 36251 ft | 439 kts | 146° |
| 2026-04-27 12:45 | 6.00884 | -75.43825 | 35989 ft | 437 kts | 146° |
| 2026-04-27 12:46 | 5.98435 | -75.42042 | 35557 ft | 434 kts | 141° |
| 2026-04-27 12:46 | 5.96239 | -75.39965 | 34997 ft | 432 kts | 135° |
| 2026-04-27 12:46 | 5.94146 | -75.37808 | 34449 ft | 431 kts | 135° |
| 2026-04-27 12:46 | 5.92051 | -75.35658 | 33841 ft | 430 kts | 135° |
| 2026-04-27 12:47 | 5.89971 | -75.33525 | 33297 ft | 426 kts | 135° |
| 2026-04-27 12:47 | 5.87900 | -75.31403 | 32746 ft | 423 kts | 135° |
| 2026-04-27 12:47 | 5.85843 | -75.29295 | 32200 ft | 421 kts | 135° |
| 2026-04-27 12:47 | 5.83803 | -75.27202 | 31660 ft | 418 kts | 135° |
| 2026-04-27 12:48 | 5.81776 | -75.25124 | 31151 ft | 415 kts | 135° |
| 2026-04-27 12:48 | 5.79761 | -75.23059 | 30641 ft | 413 kts | 134° |
| 2026-04-27 12:48 | 5.77754 | -75.21001 | 30125 ft | 410 kts | 134° |
| 2026-04-27 12:48 | 5.75763 | -75.18960 | 29597 ft | 407 kts | 134° |
| 2026-04-27 12:49 | 5.73797 | -75.16943 | 29151 ft | 402 kts | 134° |
| 2026-04-27 12:49 | 5.71855 | -75.14951 | 28686 ft | 397 kts | 134° |
| 2026-04-27 12:49 | 5.69847 | -75.13129 | 28249 ft | 392 kts | 143° |
| 2026-04-27 12:49 | 5.67529 | -75.11721 | 27806 ft | 388 kts | 155° |
| 2026-04-27 12:50 | 5.65046 | -75.10683 | 27360 ft | 384 kts | 158° |
| 2026-04-27 12:50 | 5.62583 | -75.09677 | 26916 ft | 380 kts | 158° |
| 2026-04-27 12:50 | 5.60146 | -75.08677 | 26467 ft | 377 kts | 157° |
| 2026-04-27 12:50 | 5.57725 | -75.07679 | 26029 ft | 375 kts | 158° |
| 2026-04-27 12:51 | 5.55320 | -75.06684 | 25564 ft | 373 kts | 158° |
| 2026-04-27 12:51 | 5.52925 | -75.05692 | 25071 ft | 371 kts | 158° |
| 2026-04-27 12:51 | 5.50539 | -75.04704 | 24600 ft | 371 kts | 158° |
| 2026-04-27 12:51 | 5.48157 | -75.03720 | 24108 ft | 371 kts | 158° |
| 2026-04-27 12:52 | 5.45770 | -75.02734 | 23575 ft | 371 kts | 158° |
| 2026-04-27 12:52 | 5.43385 | -75.01751 | 23085 ft | 370 kts | 158° |
| 2026-04-27 12:52 | 5.41042 | -75.00785 | 22601 ft | 368 kts | 158° |
| 2026-04-27 12:52 | 5.38682 | -74.99813 | 22017 ft | 366 kts | 158° |
| 2026-04-27 12:53 | 5.33992 | -74.97853 | 21027 ft | 364 kts | 157° |
| 2026-04-27 12:53 | 5.31671 | -74.96867 | 20540 ft | 360 kts | 157° |
| 2026-04-27 12:53 | 5.29380 | -74.95890 | 20068 ft | 354 kts | 157° |
| 2026-04-27 12:54 | 5.27123 | -74.94930 | 19577 ft | 349 kts | 157° |
| 2026-04-27 12:54 | 5.24900 | -74.93987 | 19142 ft | 345 kts | 157° |
| 2026-04-27 12:54 | 5.22722 | -74.93020 | 18713 ft | 340 kts | 152° |
| 2026-04-27 12:54 | 5.20797 | -74.91667 | 18282 ft | 337 kts | 138° |
| 2026-04-27 12:55 | 5.19267 | -74.89900 | 17811 ft | 336 kts | 124° |
| 2026-04-27 12:55 | 5.18092 | -74.87879 | 17379 ft | 335 kts | 120° |
| 2026-04-27 12:55 | 5.16939 | -74.85843 | 16957 ft | 335 kts | 120° |
| 2026-04-27 12:55 | 5.15803 | -74.83847 | 16626 ft | 332 kts | 120° |
| 2026-04-27 12:56 | 5.14658 | -74.81862 | 16598 ft | 327 kts | 121° |
| 2026-04-27 12:56 | 5.13512 | -74.79899 | 16624 ft | 326 kts | 121° |
| 2026-04-27 12:56 | 5.12363 | -74.77941 | 16638 ft | 326 kts | 121° |
| 2026-04-27 12:56 | 5.11214 | -74.75984 | 16655 ft | 326 kts | 121° |
| 2026-04-27 12:57 | 5.10062 | -74.74016 | 16402 ft | 325 kts | 121° |
| 2026-04-27 12:57 | 5.08927 | -74.72061 | 16183 ft | 324 kts | 121° |
| 2026-04-27 12:57 | 5.07800 | -74.70114 | 15960 ft | 322 kts | 121° |
| 2026-04-27 12:57 | 5.06679 | -74.68170 | 15734 ft | 321 kts | 120° |
| 2026-04-27 12:58 | 5.05579 | -74.66265 | 15524 ft | 318 kts | 121° |
| 2026-04-27 12:58 | 5.04462 | -74.64337 | 15310 ft | 317 kts | 121° |
| 2026-04-27 12:58 | 5.03354 | -74.62424 | 15109 ft | 316 kts | 121° |
| 2026-04-27 12:58 | 5.02248 | -74.60519 | 14894 ft | 315 kts | 121° |
| 2026-04-27 12:59 | 5.01147 | -74.58621 | 14688 ft | 314 kts | 120° |
| 2026-04-27 12:59 | 5.00055 | -74.56733 | 14456 ft | 312 kts | 120° |
| 2026-04-27 12:59 | 4.98965 | -74.54851 | 14237 ft | 311 kts | 121° |
| 2026-04-27 12:59 | 4.97881 | -74.52982 | 14008 ft | 309 kts | 121° |
| 2026-04-27 13:00 | 4.96805 | -74.51129 | 13770 ft | 308 kts | 120° |
| 2026-04-27 13:00 | 4.95725 | -74.49266 | 13586 ft | 307 kts | 120° |
| 2026-04-27 13:00 | 4.94665 | -74.47435 | 13363 ft | 306 kts | 120° |
| 2026-04-27 13:00 | 4.93600 | -74.45591 | 13159 ft | 299 kts | 120° |
| 2026-04-27 13:01 | 4.92584 | -74.43831 | 13052 ft | 290 kts | 120° |
| 2026-04-27 13:01 | 4.91587 | -74.42108 | 12930 ft | 283 kts | 121° |
| 2026-04-27 13:01 | 4.90468 | -74.40504 | 12900 ft | 280 kts | 127° |
| 2026-04-27 13:01 | 4.89289 | -74.38949 | 12910 ft | 280 kts | 127° |
| 2026-04-27 13:02 | 4.88109 | -74.37392 | 12916 ft | 280 kts | 127° |
| 2026-04-27 13:02 | 4.86933 | -74.35837 | 12931 ft | 281 kts | 127° |
| 2026-04-27 13:02 | 4.85776 | -74.34302 | 12963 ft | 267 kts | 127° |
| 2026-04-27 13:02 | 4.84678 | -74.32843 | 12626 ft | 260 kts | 127° |
| 2026-04-27 13:03 | 4.83599 | -74.31417 | 12275 ft | 254 kts | 127° |
| 2026-04-27 13:03 | 4.82540 | -74.30023 | 11925 ft | 248 kts | 127° |
| 2026-04-27 13:03 | 4.81506 | -74.28662 | 11621 ft | 242 kts | 127° |
| 2026-04-27 13:03 | 4.80504 | -74.27341 | 11311 ft | 236 kts | 127° |
| 2026-04-27 13:04 | 4.79517 | -74.26039 | 11000 ft | 232 kts | 127° |
| 2026-04-27 13:04 | 4.78545 | -74.24757 | 10712 ft | 232 kts | 127° |
| 2026-04-27 13:04 | 4.77577 | -74.23477 | 10434 ft | 227 kts | 127° |
| 2026-04-27 13:04 | 4.76637 | -74.22234 | 10103 ft | 217 kts | 127° |
| 2026-04-27 13:05 | 4.75755 | -74.21067 | 9798 ft | 203 kts | 127° |
| 2026-04-27 13:05 | 4.74930 | -74.19976 | 9549 ft | 188 kts | 127° |
| 2026-04-27 13:05 | 4.74179 | -74.18983 | 9278 ft | 171 kts | 127° |
| 2026-04-27 13:05 | 4.73479 | -74.18058 | 9059 ft | 164 kts | 127° |
| 2026-04-27 13:06 | 4.72796 | -74.17156 | 8862 ft | 162 kts | 126° |
| 2026-04-27 13:06 | 4.72132 | -74.16274 | 8666 ft | 160 kts | 124° |